sensor_id;sensor_type;location;lat;lon;timestamp;P1;durP1;ratioP1;P2;durP2;ratioP2
74152;SDS011;62505;46.070;14.492;2024-01-16T00:01:46;9.57;;;4.80;;
74152;SDS011;62505;46.070;14.492;2024-01-16T00:04:13;11.50;;;5.45;;
74152;SDS011;62505;46.070;14.492;2024-01-16T00:06:42;9.23;;;5.35;;
74152;SDS011;62505;46.070;14.492;2024-01-16T00:09:09;15.27;;;5.88;;
74152;SDS011;62505;46.070;14.492;2024-01-16T00:11:39;11.73;;;5.50;;
74152;SDS011;62505;46.070;14.492;2024-01-16T00:14:07;7.75;;;4.72;;
74152;SDS011;62505;46.070;14.492;2024-01-16T00:16:36;8.90;;;5.05;;
74152;SDS011;62505;46.070;14.492;2024-01-16T00:19:09;10.80;;;5.63;;
74152;SDS011;62505;46.070;14.492;2024-01-16T00:21:38;7.70;;;4.85;;
74152;SDS011;62505;46.070;14.492;2024-01-16T00:24:07;13.25;;;5.15;;
74152;SDS011;62505;46.070;14.492;2024-01-16T00:26:34;7.38;;;4.93;;
74152;SDS011;62505;46.070;14.492;2024-01-16T00:29:02;8.65;;;4.75;;
74152;SDS011;62505;46.070;14.492;2024-01-16T00:31:29;8.70;;;4.97;;
74152;SDS011;62505;46.070;14.492;2024-01-16T00:33:56;7.85;;;4.95;;
74152;SDS011;62505;46.070;14.492;2024-01-16T00:36:22;6.32;;;4.28;;
74152;SDS011;62505;46.070;14.492;2024-01-16T00:38:49;7.78;;;4.57;;
74152;SDS011;62505;46.070;14.492;2024-01-16T00:41:18;8.98;;;5.10;;
74152;SDS011;62505;46.070;14.492;2024-01-16T00:43:45;8.48;;;5.20;;
74152;SDS011;62505;46.070;14.492;2024-01-16T00:46:12;12.07;;;5.13;;
74152;SDS011;62505;46.070;14.492;2024-01-16T00:48:39;9.77;;;4.97;;
74152;SDS011;62505;46.070;14.492;2024-01-16T00:51:06;8.02;;;4.47;;
74152;SDS011;62505;46.070;14.492;2024-01-16T00:53:33;6.35;;;4.70;;
74152;SDS011;62505;46.070;14.492;2024-01-16T00:56:05;9.48;;;5.28;;
74152;SDS011;62505;46.070;14.492;2024-01-16T00:58:33;11.02;;;4.55;;
74152;SDS011;62505;46.070;14.492;2024-01-16T01:01:01;6.22;;;4.38;;
74152;SDS011;62505;46.070;14.492;2024-01-16T01:03:28;11.77;;;4.70;;
74152;SDS011;62505;46.070;14.492;2024-01-16T01:05:55;8.38;;;4.88;;
74152;SDS011;62505;46.070;14.492;2024-01-16T01:08:22;8.50;;;4.82;;
74152;SDS011;62505;46.070;14.492;2024-01-16T01:10:49;8.43;;;4.95;;
74152;SDS011;62505;46.070;14.492;2024-01-16T01:13:16;8.65;;;5.53;;
74152;SDS011;62505;46.070;14.492;2024-01-16T01:15:44;7.15;;;4.45;;
74152;SDS011;62505;46.070;14.492;2024-01-16T01:18:11;11.18;;;5.32;;
74152;SDS011;62505;46.070;14.492;2024-01-16T01:20:38;7.53;;;4.57;;
74152;SDS011;62505;46.070;14.492;2024-01-16T01:23:05;9.25;;;4.72;;
74152;SDS011;62505;46.070;14.492;2024-01-16T01:25:33;6.35;;;4.55;;
74152;SDS011;62505;46.070;14.492;2024-01-16T01:28:00;11.90;;;4.80;;
74152;SDS011;62505;46.070;14.492;2024-01-16T01:30:27;8.20;;;4.80;;
74152;SDS011;62505;46.070;14.492;2024-01-16T01:32:55;8.48;;;4.38;;
74152;SDS011;62505;46.070;14.492;2024-01-16T01:35:22;9.65;;;4.53;;
74152;SDS011;62505;46.070;14.492;2024-01-16T01:37:49;10.93;;;5.07;;
74152;SDS011;62505;46.070;14.492;2024-01-16T01:40:16;11.18;;;4.60;;
74152;SDS011;62505;46.070;14.492;2024-01-16T01:42:43;8.40;;;4.70;;
74152;SDS011;62505;46.070;14.492;2024-01-16T01:45:10;7.88;;;4.60;;
74152;SDS011;62505;46.070;14.492;2024-01-16T01:47:38;8.10;;;4.47;;
74152;SDS011;62505;46.070;14.492;2024-01-16T01:50:09;11.50;;;5.03;;
74152;SDS011;62505;46.070;14.492;2024-01-16T01:52:36;7.13;;;4.63;;
74152;SDS011;62505;46.070;14.492;2024-01-16T01:55:04;11.13;;;4.90;;
74152;SDS011;62505;46.070;14.492;2024-01-16T01:57:35;10.98;;;4.95;;
74152;SDS011;62505;46.070;14.492;2024-01-16T02:00:03;7.70;;;4.72;;
74152;SDS011;62505;46.070;14.492;2024-01-16T02:02:31;9.05;;;4.95;;
74152;SDS011;62505;46.070;14.492;2024-01-16T02:04:59;10.40;;;4.90;;
74152;SDS011;62505;46.070;14.492;2024-01-16T02:07:28;6.40;;;4.63;;
74152;SDS011;62505;46.070;14.492;2024-01-16T02:09:55;9.75;;;4.45;;
74152;SDS011;62505;46.070;14.492;2024-01-16T02:12:22;8.98;;;4.95;;
74152;SDS011;62505;46.070;14.492;2024-01-16T02:14:49;9.80;;;4.72;;
74152;SDS011;62505;46.070;14.492;2024-01-16T02:17:16;7.55;;;4.53;;
74152;SDS011;62505;46.070;14.492;2024-01-16T02:19:43;10.10;;;5.05;;
74152;SDS011;62505;46.070;14.492;2024-01-16T02:22:11;10.30;;;5.13;;
74152;SDS011;62505;46.070;14.492;2024-01-16T02:24:43;11.27;;;5.32;;
74152;SDS011;62505;46.070;14.492;2024-01-16T02:27:10;9.68;;;4.70;;
74152;SDS011;62505;46.070;14.492;2024-01-16T02:29:40;7.97;;;4.07;;
74152;SDS011;62505;46.070;14.492;2024-01-16T02:32:08;7.88;;;4.28;;
74152;SDS011;62505;46.070;14.492;2024-01-16T02:34:36;10.13;;;4.70;;
74152;SDS011;62505;46.070;14.492;2024-01-16T02:37:03;9.80;;;4.45;;
74152;SDS011;62505;46.070;14.492;2024-01-16T02:39:30;8.82;;;5.05;;
74152;SDS011;62505;46.070;14.492;2024-01-16T02:41:58;7.50;;;4.63;;
74152;SDS011;62505;46.070;14.492;2024-01-16T02:44:25;7.35;;;5.07;;
74152;SDS011;62505;46.070;14.492;2024-01-16T02:46:52;7.57;;;4.32;;
74152;SDS011;62505;46.070;14.492;2024-01-16T02:49:19;10.02;;;4.82;;
74152;SDS011;62505;46.070;14.492;2024-01-16T02:51:46;11.57;;;4.60;;
74152;SDS011;62505;46.070;14.492;2024-01-16T02:54:14;8.85;;;4.28;;
74152;SDS011;62505;46.070;14.492;2024-01-16T02:56:41;9.82;;;4.45;;
74152;SDS011;62505;46.070;14.492;2024-01-16T02:59:09;8.82;;;4.53;;
74152;SDS011;62505;46.070;14.492;2024-01-16T03:01:36;7.97;;;4.40;;
74152;SDS011;62505;46.070;14.492;2024-01-16T03:04:03;11.15;;;4.35;;
74152;SDS011;62505;46.070;14.492;2024-01-16T03:06:30;9.35;;;4.43;;
74152;SDS011;62505;46.070;14.492;2024-01-16T03:08:57;8.10;;;4.78;;
74152;SDS011;62505;46.070;14.492;2024-01-16T03:11:24;9.88;;;4.15;;
74152;SDS011;62505;46.070;14.492;2024-01-16T03:13:51;10.73;;;4.70;;
74152;SDS011;62505;46.070;14.492;2024-01-16T03:16:20;9.35;;;4.40;;
74152;SDS011;62505;46.070;14.492;2024-01-16T03:18:47;12.27;;;4.18;;
74152;SDS011;62505;46.070;14.492;2024-01-16T03:21:14;8.32;;;4.60;;
74152;SDS011;62505;46.070;14.492;2024-01-16T03:23:41;9.00;;;4.78;;
74152;SDS011;62505;46.070;14.492;2024-01-16T03:26:11;10.77;;;5.20;;
74152;SDS011;62505;46.070;14.492;2024-01-16T03:28:39;9.52;;;4.38;;
74152;SDS011;62505;46.070;14.492;2024-01-16T03:31:06;11.18;;;4.53;;
74152;SDS011;62505;46.070;14.492;2024-01-16T03:33:35;8.13;;;4.35;;
74152;SDS011;62505;46.070;14.492;2024-01-16T03:36:07;17.27;;;4.95;;
74152;SDS011;62505;46.070;14.492;2024-01-16T03:38:34;8.90;;;4.38;;
74152;SDS011;62505;46.070;14.492;2024-01-16T03:41:02;11.45;;;4.60;;
74152;SDS011;62505;46.070;14.492;2024-01-16T03:43:31;11.73;;;4.97;;
74152;SDS011;62505;46.070;14.492;2024-01-16T03:45:59;9.88;;;4.45;;
74152;SDS011;62505;46.070;14.492;2024-01-16T03:48:26;9.68;;;4.57;;
74152;SDS011;62505;46.070;14.492;2024-01-16T03:50:54;8.82;;;4.63;;
74152;SDS011;62505;46.070;14.492;2024-01-16T03:53:21;10.80;;;4.82;;
74152;SDS011;62505;46.070;14.492;2024-01-16T03:55:49;9.80;;;4.68;;
74152;SDS011;62505;46.070;14.492;2024-01-16T03:58:17;7.78;;;4.20;;
74152;SDS011;62505;46.070;14.492;2024-01-16T04:00:44;9.88;;;4.60;;
74152;SDS011;62505;46.070;14.492;2024-01-16T04:03:11;13.38;;;4.50;;
74152;SDS011;62505;46.070;14.492;2024-01-16T04:05:38;8.77;;;4.85;;
74152;SDS011;62505;46.070;14.492;2024-01-16T04:08:06;9.43;;;4.45;;
74152;SDS011;62505;46.070;14.492;2024-01-16T04:10:33;12.07;;;4.10;;
74152;SDS011;62505;46.070;14.492;2024-01-16T04:13:00;7.78;;;3.88;;
74152;SDS011;62505;46.070;14.492;2024-01-16T04:15:28;9.90;;;4.28;;
74152;SDS011;62505;46.070;14.492;2024-01-16T04:17:55;9.10;;;4.18;;
74152;SDS011;62505;46.070;14.492;2024-01-16T04:20:22;11.25;;;4.00;;
74152;SDS011;62505;46.070;14.492;2024-01-16T04:22:49;9.45;;;4.30;;
74152;SDS011;62505;46.070;14.492;2024-01-16T04:25:17;11.50;;;4.57;;
74152;SDS011;62505;46.070;14.492;2024-01-16T04:27:44;9.43;;;4.00;;
74152;SDS011;62505;46.070;14.492;2024-01-16T04:30:11;8.80;;;4.53;;
74152;SDS011;62505;46.070;14.492;2024-01-16T04:32:39;7.72;;;4.55;;
74152;SDS011;62505;46.070;14.492;2024-01-16T04:35:06;7.43;;;4.22;;
74152;SDS011;62505;46.070;14.492;2024-01-16T04:37:34;10.00;;;4.13;;
74152;SDS011;62505;46.070;14.492;2024-01-16T04:40:01;7.15;;;3.53;;
74152;SDS011;62505;46.070;14.492;2024-01-16T04:42:31;9.38;;;4.07;;
74152;SDS011;62505;46.070;14.492;2024-01-16T04:44:58;7.97;;;4.10;;
74152;SDS011;62505;46.070;14.492;2024-01-16T04:47:25;8.32;;;4.18;;
74152;SDS011;62505;46.070;14.492;2024-01-16T04:49:52;10.95;;;4.35;;
74152;SDS011;62505;46.070;14.492;2024-01-16T04:52:19;5.60;;;3.53;;
74152;SDS011;62505;46.070;14.492;2024-01-16T04:54:46;9.52;;;4.35;;
74152;SDS011;62505;46.070;14.492;2024-01-16T04:57:12;7.85;;;4.28;;
74152;SDS011;62505;46.070;14.492;2024-01-16T04:59:41;6.90;;;3.67;;
74152;SDS011;62505;46.070;14.492;2024-01-16T05:02:08;7.22;;;3.75;;
74152;SDS011;62505;46.070;14.492;2024-01-16T05:04:36;11.93;;;4.75;;
74152;SDS011;62505;46.070;14.492;2024-01-16T05:07:04;11.40;;;4.53;;
74152;SDS011;62505;46.070;14.492;2024-01-16T05:09:31;8.38;;;3.72;;
74152;SDS011;62505;46.070;14.492;2024-01-16T05:11:58;8.60;;;4.32;;
74152;SDS011;62505;46.070;14.492;2024-01-16T05:14:25;11.50;;;4.40;;
74152;SDS011;62505;46.070;14.492;2024-01-16T05:16:53;14.60;;;5.53;;
74152;SDS011;62505;46.070;14.492;2024-01-16T05:19:20;16.48;;;5.63;;
74152;SDS011;62505;46.070;14.492;2024-01-16T05:21:47;17.48;;;4.95;;
74152;SDS011;62505;46.070;14.492;2024-01-16T05:24:14;19.52;;;4.85;;
74152;SDS011;62505;46.070;14.492;2024-01-16T05:26:41;16.85;;;5.38;;
74152;SDS011;62505;46.070;14.492;2024-01-16T05:29:08;21.60;;;5.85;;
74152;SDS011;62505;46.070;14.492;2024-01-16T05:31:39;40.35;;;5.90;;
74152;SDS011;62505;46.070;14.492;2024-01-16T05:34:07;13.30;;;4.25;;
74152;SDS011;62505;46.070;14.492;2024-01-16T05:36:34;11.95;;;4.72;;
74152;SDS011;62505;46.070;14.492;2024-01-16T05:39:02;17.65;;;5.07;;
74152;SDS011;62505;46.070;14.492;2024-01-16T05:41:32;18.70;;;4.82;;
74152;SDS011;62505;46.070;14.492;2024-01-16T05:43:59;12.43;;;4.70;;
74152;SDS011;62505;46.070;14.492;2024-01-16T05:46:28;11.45;;;4.30;;
74152;SDS011;62505;46.070;14.492;2024-01-16T05:48:55;11.88;;;4.65;;
74152;SDS011;62505;46.070;14.492;2024-01-16T05:51:24;11.90;;;4.90;;
74152;SDS011;62505;46.070;14.492;2024-01-16T05:53:51;10.90;;;4.07;;
74152;SDS011;62505;46.070;14.492;2024-01-16T05:56:18;12.45;;;4.38;;
74152;SDS011;62505;46.070;14.492;2024-01-16T05:58:45;16.70;;;4.57;;
74152;SDS011;62505;46.070;14.492;2024-01-16T06:01:12;17.23;;;5.35;;
74152;SDS011;62505;46.070;14.492;2024-01-16T06:03:40;12.93;;;4.78;;
74152;SDS011;62505;46.070;14.492;2024-01-16T06:06:10;15.57;;;4.88;;
74152;SDS011;62505;46.070;14.492;2024-01-16T06:08:39;13.25;;;4.85;;
74152;SDS011;62505;46.070;14.492;2024-01-16T06:11:06;15.55;;;4.20;;
74152;SDS011;62505;46.070;14.492;2024-01-16T06:13:33;17.95;;;4.85;;
74152;SDS011;62505;46.070;14.492;2024-01-16T06:16:00;11.13;;;4.45;;
74152;SDS011;62505;46.070;14.492;2024-01-16T06:18:27;15.05;;;4.60;;
74152;SDS011;62505;46.070;14.492;2024-01-16T06:20:54;15.55;;;4.38;;
74152;SDS011;62505;46.070;14.492;2024-01-16T06:23:21;15.45;;;4.60;;
74152;SDS011;62505;46.070;14.492;2024-01-16T06:25:49;21.65;;;5.18;;
74152;SDS011;62505;46.070;14.492;2024-01-16T06:28:16;12.43;;;4.72;;
74152;SDS011;62505;46.070;14.492;2024-01-16T06:30:43;16.48;;;5.30;;
74152;SDS011;62505;46.070;14.492;2024-01-16T06:33:10;16.73;;;5.28;;
74152;SDS011;62505;46.070;14.492;2024-01-16T06:35:37;18.65;;;5.20;;
74152;SDS011;62505;46.070;14.492;2024-01-16T06:38:05;12.20;;;4.00;;
74152;SDS011;62505;46.070;14.492;2024-01-16T06:40:32;10.18;;;4.30;;
74152;SDS011;62505;46.070;14.492;2024-01-16T06:43:00;10.77;;;5.05;;
74152;SDS011;62505;46.070;14.492;2024-01-16T06:45:27;17.13;;;4.63;;
74152;SDS011;62505;46.070;14.492;2024-01-16T06:47:55;10.90;;;4.00;;
74152;SDS011;62505;46.070;14.492;2024-01-16T06:50:22;10.80;;;4.60;;
74152;SDS011;62505;46.070;14.492;2024-01-16T06:52:49;14.45;;;4.65;;
74152;SDS011;62505;46.070;14.492;2024-01-16T06:55:16;15.50;;;3.83;;
74152;SDS011;62505;46.070;14.492;2024-01-16T06:57:42;11.48;;;4.35;;
74152;SDS011;62505;46.070;14.492;2024-01-16T07:00:14;11.52;;;4.10;;
74152;SDS011;62505;46.070;14.492;2024-01-16T07:02:42;9.85;;;4.13;;
74152;SDS011;62505;46.070;14.492;2024-01-16T07:05:09;11.55;;;4.63;;
74152;SDS011;62505;46.070;14.492;2024-01-16T07:07:40;14.85;;;4.43;;
74152;SDS011;62505;46.070;14.492;2024-01-16T07:10:07;16.42;;;4.55;;
74152;SDS011;62505;46.070;14.492;2024-01-16T07:12:38;12.00;;;3.85;;
74152;SDS011;62505;46.070;14.492;2024-01-16T07:15:06;11.98;;;4.05;;
74152;SDS011;62505;46.070;14.492;2024-01-16T07:17:34;9.90;;;3.72;;
74152;SDS011;62505;46.070;14.492;2024-01-16T07:20:01;10.85;;;3.78;;
74152;SDS011;62505;46.070;14.492;2024-01-16T07:22:29;13.98;;;5.00;;
74152;SDS011;62505;46.070;14.492;2024-01-16T07:24:56;9.02;;;3.78;;
74152;SDS011;62505;46.070;14.492;2024-01-16T07:27:23;11.73;;;3.90;;
74152;SDS011;62505;46.070;14.492;2024-01-16T07:29:50;9.85;;;4.05;;
74152;SDS011;62505;46.070;14.492;2024-01-16T07:32:17;12.70;;;4.00;;
74152;SDS011;62505;46.070;14.492;2024-01-16T07:34:45;12.57;;;4.10;;
74152;SDS011;62505;46.070;14.492;2024-01-16T07:37:12;8.75;;;3.88;;
74152;SDS011;62505;46.070;14.492;2024-01-16T07:39:40;8.60;;;3.83;;
74152;SDS011;62505;46.070;14.492;2024-01-16T07:42:07;10.38;;;3.45;;
74152;SDS011;62505;46.070;14.492;2024-01-16T07:44:35;10.13;;;3.97;;
74152;SDS011;62505;46.070;14.492;2024-01-16T07:47:02;11.55;;;3.97;;
74152;SDS011;62505;46.070;14.492;2024-01-16T07:49:29;10.45;;;3.65;;
74152;SDS011;62505;46.070;14.492;2024-01-16T07:51:57;8.25;;;4.20;;
74152;SDS011;62505;46.070;14.492;2024-01-16T07:54:25;12.00;;;4.68;;
74152;SDS011;62505;46.070;14.492;2024-01-16T07:56:52;9.52;;;3.45;;
74152;SDS011;62505;46.070;14.492;2024-01-16T07:59:19;6.35;;;3.38;;
74152;SDS011;62505;46.070;14.492;2024-01-16T08:01:45;8.98;;;3.55;;
74152;SDS011;62505;46.070;14.492;2024-01-16T08:04:12;9.27;;;3.70;;
74152;SDS011;62505;46.070;14.492;2024-01-16T08:06:39;15.38;;;4.15;;
74152;SDS011;62505;46.070;14.492;2024-01-16T08:09:08;12.55;;;3.92;;
74152;SDS011;62505;46.070;14.492;2024-01-16T08:11:37;9.38;;;4.03;;
74152;SDS011;62505;46.070;14.492;2024-01-16T08:14:04;14.50;;;4.40;;
74152;SDS011;62505;46.070;14.492;2024-01-16T08:16:31;14.25;;;4.55;;
74152;SDS011;62505;46.070;14.492;2024-01-16T08:18:58;14.93;;;3.80;;
74152;SDS011;62505;46.070;14.492;2024-01-16T08:21:25;17.60;;;3.75;;
74152;SDS011;62505;46.070;14.492;2024-01-16T08:23:52;18.88;;;4.38;;
74152;SDS011;62505;46.070;14.492;2024-01-16T08:26:20;11.38;;;4.65;;
74152;SDS011;62505;46.070;14.492;2024-01-16T08:28:47;15.70;;;4.82;;
74152;SDS011;62505;46.070;14.492;2024-01-16T08:31:16;12.25;;;4.05;;
74152;SDS011;62505;46.070;14.492;2024-01-16T08:33:44;11.18;;;4.00;;
74152;SDS011;62505;46.070;14.492;2024-01-16T08:36:11;14.32;;;4.20;;
74152;SDS011;62505;46.070;14.492;2024-01-16T08:38:38;13.55;;;3.97;;
74152;SDS011;62505;46.070;14.492;2024-01-16T08:41:05;17.60;;;4.97;;
74152;SDS011;62505;46.070;14.492;2024-01-16T08:43:35;11.20;;;4.22;;
74152;SDS011;62505;46.070;14.492;2024-01-16T08:46:02;16.50;;;4.10;;
74152;SDS011;62505;46.070;14.492;2024-01-16T08:48:29;19.02;;;4.68;;
74152;SDS011;62505;46.070;14.492;2024-01-16T08:50:56;18.60;;;5.03;;
74152;SDS011;62505;46.070;14.492;2024-01-16T08:53:24;11.90;;;4.22;;
74152;SDS011;62505;46.070;14.492;2024-01-16T08:55:51;9.63;;;3.97;;
74152;SDS011;62505;46.070;14.492;2024-01-16T08:58:17;13.85;;;4.65;;
74152;SDS011;62505;46.070;14.492;2024-01-16T09:00:46;13.10;;;4.18;;
74152;SDS011;62505;46.070;14.492;2024-01-16T09:03:13;15.75;;;4.88;;
74152;SDS011;62505;46.070;14.492;2024-01-16T09:05:40;13.70;;;4.72;;
74152;SDS011;62505;46.070;14.492;2024-01-16T09:08:08;14.23;;;4.35;;
74152;SDS011;62505;46.070;14.492;2024-01-16T09:10:35;16.92;;;4.13;;
74152;SDS011;62505;46.070;14.492;2024-01-16T09:13:02;13.48;;;4.38;;
74152;SDS011;62505;46.070;14.492;2024-01-16T09:15:29;11.13;;;4.03;;
74152;SDS011;62505;46.070;14.492;2024-01-16T09:17:57;10.73;;;3.88;;
74152;SDS011;62505;46.070;14.492;2024-01-16T09:20:24;11.30;;;4.22;;
74152;SDS011;62505;46.070;14.492;2024-01-16T09:22:51;10.43;;;3.97;;
74152;SDS011;62505;46.070;14.492;2024-01-16T09:25:18;13.40;;;4.10;;
74152;SDS011;62505;46.070;14.492;2024-01-16T09:27:49;12.40;;;4.18;;
74152;SDS011;62505;46.070;14.492;2024-01-16T09:30:16;10.13;;;4.03;;
74152;SDS011;62505;46.070;14.492;2024-01-16T09:32:43;8.23;;;3.97;;
74152;SDS011;62505;46.070;14.492;2024-01-16T09:35:11;10.48;;;3.80;;
74152;SDS011;62505;46.070;14.492;2024-01-16T09:37:38;10.32;;;3.92;;
74152;SDS011;62505;46.070;14.492;2024-01-16T09:40:06;13.18;;;4.15;;
74152;SDS011;62505;46.070;14.492;2024-01-16T09:42:34;9.57;;;3.53;;
74152;SDS011;62505;46.070;14.492;2024-01-16T09:45:01;8.60;;;3.53;;
74152;SDS011;62505;46.070;14.492;2024-01-16T09:47:28;10.55;;;3.90;;
74152;SDS011;62505;46.070;14.492;2024-01-16T09:49:57;9.98;;;3.72;;
74152;SDS011;62505;46.070;14.492;2024-01-16T09:52:26;7.68;;;3.65;;
74152;SDS011;62505;46.070;14.492;2024-01-16T09:54:53;15.80;;;4.13;;
74152;SDS011;62505;46.070;14.492;2024-01-16T09:57:22;11.02;;;3.95;;
74152;SDS011;62505;46.070;14.492;2024-01-16T09:59:51;9.65;;;4.20;;
74152;SDS011;62505;46.070;14.492;2024-01-16T10:02:18;9.48;;;3.58;;
74152;SDS011;62505;46.070;14.492;2024-01-16T10:04:46;12.80;;;3.20;;
74152;SDS011;62505;46.070;14.492;2024-01-16T10:07:14;8.98;;;3.65;;
74152;SDS011;62505;46.070;14.492;2024-01-16T10:09:44;13.65;;;3.63;;
74152;SDS011;62505;46.070;14.492;2024-01-16T10:12:11;10.38;;;3.95;;
74152;SDS011;62505;46.070;14.492;2024-01-16T10:14:38;9.55;;;3.33;;
74152;SDS011;62505;46.070;14.492;2024-01-16T10:17:06;9.35;;;3.10;;
74152;SDS011;62505;46.070;14.492;2024-01-16T10:19:47;14.55;;;3.67;;
74152;SDS011;62505;46.070;14.492;2024-01-16T10:22:19;9.38;;;3.53;;
74152;SDS011;62505;46.070;14.492;2024-01-16T10:24:49;9.63;;;3.70;;
74152;SDS011;62505;46.070;14.492;2024-01-16T10:27:16;9.90;;;4.00;;
74152;SDS011;62505;46.070;14.492;2024-01-16T10:29:54;8.90;;;3.58;;
74152;SDS011;62505;46.070;14.492;2024-01-16T10:32:28;10.85;;;3.55;;
74152;SDS011;62505;46.070;14.492;2024-01-16T10:35:02;9.90;;;3.72;;
74152;SDS011;62505;46.070;14.492;2024-01-16T10:37:30;12.68;;;3.60;;
74152;SDS011;62505;46.070;14.492;2024-01-16T10:40:08;10.88;;;3.45;;
74152;SDS011;62505;46.070;14.492;2024-01-16T10:42:36;9.65;;;3.28;;
74152;SDS011;62505;46.070;14.492;2024-01-16T10:45:04;8.55;;;3.28;;
74152;SDS011;62505;46.070;14.492;2024-01-16T10:47:32;11.85;;;3.92;;
74152;SDS011;62505;46.070;14.492;2024-01-16T10:50:02;10.45;;;3.53;;
74152;SDS011;62505;46.070;14.492;2024-01-16T10:52:31;11.68;;;3.28;;
74152;SDS011;62505;46.070;14.492;2024-01-16T10:55:00;9.50;;;3.90;;
74152;SDS011;62505;46.070;14.492;2024-01-16T10:57:34;9.07;;;3.88;;
74152;SDS011;62505;46.070;14.492;2024-01-16T11:00:07;10.50;;;3.10;;
74152;SDS011;62505;46.070;14.492;2024-01-16T11:02:38;5.55;;;3.03;;
74152;SDS011;62505;46.070;14.492;2024-01-16T11:05:10;8.88;;;3.40;;
74152;SDS011;62505;46.070;14.492;2024-01-16T11:07:39;8.13;;;3.00;;
74152;SDS011;62505;46.070;14.492;2024-01-16T11:10:08;11.00;;;3.75;;
74152;SDS011;62505;46.070;14.492;2024-01-16T11:12:38;8.23;;;3.70;;
74152;SDS011;62505;46.070;14.492;2024-01-16T11:15:07;10.95;;;3.80;;
74152;SDS011;62505;46.070;14.492;2024-01-16T11:17:38;13.27;;;3.53;;
74152;SDS011;62505;46.070;14.492;2024-01-16T11:20:07;9.45;;;3.30;;
74152;SDS011;62505;46.070;14.492;2024-01-16T11:22:37;8.52;;;4.18;;
74152;SDS011;62505;46.070;14.492;2024-01-16T11:25:12;10.52;;;3.63;;
74152;SDS011;62505;46.070;14.492;2024-01-16T11:27:42;9.13;;;3.20;;
74152;SDS011;62505;46.070;14.492;2024-01-16T11:30:11;13.02;;;3.65;;
74152;SDS011;62505;46.070;14.492;2024-01-16T11:32:53;8.13;;;2.90;;
74152;SDS011;62505;46.070;14.492;2024-01-16T11:35:24;8.15;;;3.10;;
74152;SDS011;62505;46.070;14.492;2024-01-16T11:38:03;11.35;;;3.00;;
74152;SDS011;62505;46.070;14.492;2024-01-16T11:40:34;8.02;;;3.08;;
74152;SDS011;62505;46.070;14.492;2024-01-16T11:46:02;13.75;;;4.03;;
74152;SDS011;62505;46.070;14.492;2024-01-16T11:48:30;7.03;;;2.75;;
74152;SDS011;62505;46.070;14.492;2024-01-16T11:50:57;7.82;;;3.10;;
74152;SDS011;62505;46.070;14.492;2024-01-16T11:53:33;6.90;;;3.17;;
74152;SDS011;62505;46.070;14.492;2024-01-16T11:56:23;7.20;;;2.97;;
74152;SDS011;62505;46.070;14.492;2024-01-16T11:59:23;11.27;;;3.47;;
74152;SDS011;62505;46.070;14.492;2024-01-16T12:02:09;8.88;;;3.42;;
74152;SDS011;62505;46.070;14.492;2024-01-16T12:04:40;8.45;;;2.88;;
74152;SDS011;62505;46.070;14.492;2024-01-16T12:07:07;7.72;;;3.55;;
74152;SDS011;62505;46.070;14.492;2024-01-16T12:09:36;10.98;;;3.08;;
74152;SDS011;62505;46.070;14.492;2024-01-16T12:12:03;14.25;;;3.95;;
74152;SDS011;62505;46.070;14.492;2024-01-16T12:14:31;11.13;;;3.10;;
74152;SDS011;62505;46.070;14.492;2024-01-16T12:17:11;8.93;;;3.15;;
74152;SDS011;62505;46.070;14.492;2024-01-16T12:19:39;8.23;;;4.20;;
74152;SDS011;62505;46.070;14.492;2024-01-16T12:22:08;9.52;;;3.03;;
74152;SDS011;62505;46.070;14.492;2024-01-16T12:24:36;15.07;;;3.53;;
74152;SDS011;62505;46.070;14.492;2024-01-16T12:27:03;9.10;;;2.90;;
74152;SDS011;62505;46.070;14.492;2024-01-16T12:29:30;8.10;;;3.05;;
74152;SDS011;62505;46.070;14.492;2024-01-16T12:32:04;6.35;;;2.50;;
74152;SDS011;62505;46.070;14.492;2024-01-16T12:34:34;3.08;;;1.80;;
74152;SDS011;62505;46.070;14.492;2024-01-16T12:37:05;4.07;;;1.85;;
74152;SDS011;62505;46.070;14.492;2024-01-16T12:39:33;2.45;;;1.70;;
74152;SDS011;62505;46.070;14.492;2024-01-16T12:42:00;3.22;;;1.85;;
74152;SDS011;62505;46.070;14.492;2024-01-16T12:44:28;1.50;;;1.35;;
74152;SDS011;62505;46.070;14.492;2024-01-16T12:46:55;2.17;;;1.80;;
74152;SDS011;62505;46.070;14.492;2024-01-16T12:49:24;2.08;;;1.70;;
74152;SDS011;62505;46.070;14.492;2024-01-16T12:51:52;2.58;;;1.88;;
74152;SDS011;62505;46.070;14.492;2024-01-16T12:54:45;3.95;;;2.03;;
74152;SDS011;62505;46.070;14.492;2024-01-16T12:57:17;4.28;;;1.90;;
74152;SDS011;62505;46.070;14.492;2024-01-16T12:59:45;2.05;;;1.52;;
74152;SDS011;62505;46.070;14.492;2024-01-16T13:02:19;2.53;;;1.80;;
74152;SDS011;62505;46.070;14.492;2024-01-16T13:04:48;2.13;;;1.58;;
74152;SDS011;62505;46.070;14.492;2024-01-16T13:07:24;1.85;;;1.20;;
74152;SDS011;62505;46.070;14.492;2024-01-16T13:10:05;2.85;;;1.40;;
74152;SDS011;62505;46.070;14.492;2024-01-16T13:12:37;3.00;;;1.60;;
74152;SDS011;62505;46.070;14.492;2024-01-16T13:15:04;5.63;;;2.00;;
74152;SDS011;62505;46.070;14.492;2024-01-16T13:17:32;2.30;;;2.00;;
74152;SDS011;62505;46.070;14.492;2024-01-16T13:20:00;2.58;;;1.58;;
74152;SDS011;62505;46.070;14.492;2024-01-16T13:22:30;3.92;;;1.77;;
74152;SDS011;62505;46.070;14.492;2024-01-16T13:24:57;2.92;;;1.70;;
74152;SDS011;62505;46.070;14.492;2024-01-16T13:27:24;2.72;;;1.60;;
74152;SDS011;62505;46.070;14.492;2024-01-16T13:29:51;2.58;;;1.98;;
74152;SDS011;62505;46.070;14.492;2024-01-16T13:32:19;2.55;;;1.73;;
74152;SDS011;62505;46.070;14.492;2024-01-16T13:34:46;2.65;;;1.90;;
74152;SDS011;62505;46.070;14.492;2024-01-16T13:37:17;4.30;;;1.75;;
74152;SDS011;62505;46.070;14.492;2024-01-16T13:39:48;2.45;;;1.60;;
74152;SDS011;62505;46.070;14.492;2024-01-16T13:42:14;2.50;;;1.80;;
74152;SDS011;62505;46.070;14.492;2024-01-16T13:44:45;2.13;;;1.48;;
74152;SDS011;62505;46.070;14.492;2024-01-16T13:47:13;3.00;;;1.50;;
74152;SDS011;62505;46.070;14.492;2024-01-16T13:49:43;2.50;;;1.50;;
74152;SDS011;62505;46.070;14.492;2024-01-16T13:52:11;2.30;;;1.70;;
74152;SDS011;62505;46.070;14.492;2024-01-16T13:54:38;2.38;;;1.55;;
74152;SDS011;62505;46.070;14.492;2024-01-16T13:57:06;1.77;;;1.42;;
74152;SDS011;62505;46.070;14.492;2024-01-16T13:59:34;2.50;;;1.50;;
74152;SDS011;62505;46.070;14.492;2024-01-16T14:02:01;3.25;;;1.55;;
74152;SDS011;62505;46.070;14.492;2024-01-16T14:04:29;1.85;;;1.40;;
74152;SDS011;62505;46.070;14.492;2024-01-16T14:06:56;2.97;;;1.33;;
74152;SDS011;62505;46.070;14.492;2024-01-16T14:09:23;2.25;;;1.50;;
74152;SDS011;62505;46.070;14.492;2024-01-16T14:11:50;2.65;;;1.48;;
74152;SDS011;62505;46.070;14.492;2024-01-16T14:14:19;5.57;;;1.65;;
74152;SDS011;62505;46.070;14.492;2024-01-16T14:16:46;4.90;;;1.45;;
74152;SDS011;62505;46.070;14.492;2024-01-16T14:19:14;5.93;;;1.58;;
74152;SDS011;62505;46.070;14.492;2024-01-16T14:21:43;4.90;;;1.77;;
74152;SDS011;62505;46.070;14.492;2024-01-16T14:24:10;3.53;;;1.33;;
74152;SDS011;62505;46.070;14.492;2024-01-16T14:26:37;4.93;;;2.17;;
74152;SDS011;62505;46.070;14.492;2024-01-16T14:29:04;17.10;;;4.25;;
74152;SDS011;62505;46.070;14.492;2024-01-16T14:31:33;17.67;;;5.75;;
74152;SDS011;62505;46.070;14.492;2024-01-16T14:34:00;11.88;;;3.55;;
74152;SDS011;62505;46.070;14.492;2024-01-16T14:36:28;13.70;;;3.38;;
74152;SDS011;62505;46.070;14.492;2024-01-16T14:38:56;14.40;;;3.30;;